Istres Le Tubé/Istres Air Base (BA 125) Airport

Airport
ICAO code: 
LFMI
Summary
ICAO Region: 
EUR
Territory: 
Location: 
, Provence-Alpes-Cote d'Azur
Serving: 
Istres
Elevation: 
82 ft
Coordinates: 
Aerial View: 
43° 31' 21.85" N, 4° 55' 25.838" E
Metar
Observation
LFMI 240800Z AUTO 04009KT 9999 BKN024 02/M00 Q1030 NOSIG
Station
Istres
Date/Time
2022-01-24 08:00:00
Wind direction
40°
Wind speed
09 kts
Lowest cloud amount
broken clouds
Temperature
2°C
Dew point
-0°C
Humidity
86%
QNH
1030 hPa
Weather condition
n/a

Runways

Designator Length Width Surface Rops
15/33 3750 60 ASP Yes/Yes
Airport map: 
Aerial View: 

SKYbrary Partners:

Safety knowledge contributed by: